Lake Dynasty — 3FZB2 — position and weather

sailwx.info

Track history (hours):
 
Tides and Currents Weather Stations Pressure Air Temp Water Temp Dewpoint Dewpoint Depression Visibility Wind Speed Wind Dir Waves Ship Positions

Lake Dynasty

Last reported at 2015-May-07 22:25 UTC. Time now 2015-May-22 20:38 UTC.
Position S 30°23' E 030°56'.
Warning: this ship's position is 14 days out of date.

Length 182 m; draft 12.8 m.

Type: Cargo ship. MMSI: 370957000.

Date/timePositionNaut miles runAvg speedWind from/ knotsBaromVisibWave heightAir tempDewpointWater temp
2015-May-07 22:25S 30°23' E 030°56'910.8
2015-May-07 21:34S 30°15' E 031°01'1111.0
2015-May-07 20:34S 30°06' E 031°08'1110.6
2015-May-07 19:33S 29°57' E 031°15'1110.6
2015-May-07 18:34S 29°48' E 031°21'1110.8
2015-May-07 17:33S 29°38' E 031°27'1110.9
2015-May-07 16:33S 29°30' E 031°36'1111.0
2015-May-07 15:33S 29°22' E 031°44'38 0.8
2015-May-05 15:25S 28°48' E 032°03'0 0.0
2015-May-05 14:31S 28°48' E 032°03'0 0.0
2015-May-05 13:25S 28°48' E 032°03'  
Track history (hours):
 
Tides and Currents Weather Stations Pressure Air Temp Water Temp Dewpoint Dewpoint Depression Visibility Wind Speed Wind Dir Waves Ship Positions

Lake Dynasty

Last reported at 2015-May-07 22:25 UTC. Time now 2015-May-22 20:38 UTC.
Position S 30°23' E 030°56'.
Warning: this ship's position is 14 days out of date.

Length 182 m; draft 12.8 m.

Type: Cargo ship. MMSI: 370957000.

Date/timePositionNaut miles runAvg speedWind from/ knotsBaromVisibWave heightAir tempDewpointWater temp
2015-May-07 22:25S 30°23' E 030°56'910.8
2015-May-07 21:34S 30°15' E 031°01'1111.0
2015-May-07 20:34S 30°06' E 031°08'1110.6
2015-May-07 19:33S 29°57' E 031°15'1110.6
2015-May-07 18:34S 29°48' E 031°21'1110.8
2015-May-07 17:33S 29°38' E 031°27'1110.9
2015-May-07 16:33S 29°30' E 031°36'1111.0
2015-May-07 15:33S 29°22' E 031°44'38 0.8
2015-May-05 15:25S 28°48' E 032°03'0 0.0
2015-May-05 14:31S 28°48' E 032°03'0 0.0
2015-May-05 13:25S 28°48' E 032°03'  

Dump ship's entire track history